PHA weather

Pista Coahuila
San Luis Rio Colorado, Sonora, Mexico

Public forecast

Using degrees Celsius for public forecast. Weather courtesy of forecast.io.

Closest aviation weather report (METAR) to Pista Coahuila

Report is more than 2 hours old.

Closest report is General Rodolfo Sánchez Taboada International Airport, 25.4 nm (47.1 km) NNW. Retrieved 2020/04/10 03:40 UTC (2 hours ago):

MMML 100340Z 00000KT 10SM SKC 18/06 A3003 RMK SC

Closest aviation forecast (TAF) to Pista Coahuila

Forecast is more than 6 hours old.

Closest forecast is General Rodolfo Sánchez Taboada International Airport, 25.4 nm (47.1 km) NNW. Retrieved 2020/04/09 18:52 UTC (11 hours ago):

TAF MMML 091645Z 0918/1018 15005KT P6SM SKC FM100000 34006KT P6SM BKN030 FM100900 36006KT 6SM HZ BKN030 BKN090 FM101800 15005KT 6SM HZ BKN015 OVC080 VC RA